Time;durP1;ratioP1;P1;durP2;ratioP2;P2;SDS_P1;SDS_P2;PMS_P1;PMS_P2;Temp;Humidity;BMP_temperature;BMP_pressure;BME280_temperature;BME280_humidity;BME280_pressure;Samples;Min_cycle;Max_cycle;Signal;HPM_P1;HPM_P2
2021/05/22 00:01:03;;;;;;;1.43;0.50;;;;;;;15.24;76.59;97235.16;5022573;28;20198;-70
2021/05/22 00:03:30;;;;;;;3.43;0.80;;;;;;;15.03;77.47;97240.50;5018000;28;20206;-70
2021/05/22 00:05:57;;;;;;;1.13;0.53;;;;;;;15.40;74.94;97244.28;5017822;28;20229;-70
2021/05/22 00:08:24;;;;;;;2.97;0.80;;;;;;;14.94;77.50;97247.38;5013504;28;20210;-70
2021/05/22 00:10:52;;;;;;;2.67;0.60;;;;;;;15.30;75.29;97268.31;5014387;28;20206;-69
2021/05/22 00:13:19;;;;;;;0.50;0.40;;;;;;;14.71;78.40;97251.06;5016884;28;20571;-70
2021/05/22 00:15:46;;;;;;;0.70;0.50;;;;;;;15.21;75.76;97248.28;5008764;28;20226;-70
2021/05/22 00:18:13;;;;;;;0.77;0.50;;;;;;;15.17;75.75;97261.41;5011758;28;20329;-71
2021/05/22 00:20:40;;;;;;;1.97;0.60;;;;;;;15.42;73.71;97274.41;5016211;28;20298;-70
2021/05/22 00:23:07;;;;;;;1.97;0.60;;;;;;;15.16;74.04;97280.47;5013351;28;20207;-70
2021/05/22 00:25:34;;;;;;;3.90;0.90;;;;;;;15.31;73.93;97272.63;5010663;28;20314;-71
2021/05/22 00:28:02;;;;;;;0.43;0.40;;;;;;;14.67;75.74;97267.88;5016281;28;20199;-70
2021/05/22 00:30:28;;;;;;;3.93;0.70;;;;;;;14.86;74.69;97272.78;5011484;28;20203;-72
2021/05/22 00:32:55;;;;;;;1.23;0.50;;;;;;;14.80;73.33;97271.06;5009918;28;20202;-72
2021/05/22 00:35:22;;;;;;;0.60;0.50;;;;;;;15.18;72.22;97286.41;5013534;28;20235;-71
2021/05/22 00:37:49;;;;;;;1.33;0.57;;;;;;;14.58;73.78;97277.44;5011856;28;20233;-71
2021/05/22 00:40:16;;;;;;;1.63;0.40;;;;;;;14.59;73.88;97284.44;5010240;28;20687;-71
2021/05/22 00:42:44;;;;;;;0.93;0.60;;;;;;;14.46;75.09;97269.44;5015389;28;20572;-71
2021/05/22 00:45:17;;;;;;;1.60;0.40;;;;;;;14.70;73.77;97283.53;5016690;28;20289;-71
2021/05/22 00:47:46;;;;;;;1.47;0.50;;;;;;;14.35;74.58;97304.41;5015769;28;20260;-68
2021/05/22 00:50:17;;;;;;;1.13;0.60;;;;;;;14.49;73.38;97293.09;5015589;28;20257;-71
2021/05/22 00:52:44;;;;;;;1.83;0.70;;;;;;;14.70;72.44;97287.00;5009156;28;20214;-71
2021/05/22 00:55:12;;;;;;;1.40;0.60;;;;;;;14.54;73.85;97284.34;5008568;28;20207;-67
2021/05/22 00:57:40;;;;;;;3.80;0.70;;;;;;;14.40;74.42;97266.91;5011811;28;20246;-69
2021/05/22 01:00:09;;;;;;;1.07;0.40;;;;;;;14.71;72.78;97271.72;5015093;28;20218;-69
2021/05/22 01:02:37;;;;;;;0.90;0.50;;;;;;;14.62;72.71;97268.63;5014207;28;20212;-71
2021/05/22 01:05:05;;;;;;;4.67;2.20;;;;;;;14.33;74.66;97271.63;5015373;28;20203;-70
2021/05/22 01:07:32;;;;;;;7.20;3.23;;;;;;;14.56;72.82;97276.84;5004132;28;20203;-68
2021/05/22 01:09:59;;;;;;;1.80;0.73;;;;;;;14.42;74.09;97302.38;5015232;28;20195;-69
2021/05/22 01:12:30;;;;;;;1.70;0.57;;;;;;;14.50;74.56;97305.50;5011428;28;20282;-68
2021/05/22 01:15:00;;;;;;;0.47;0.30;;;;;;;14.72;73.54;97314.47;5003052;28;20200;-71
2021/05/22 01:17:27;;;;;;;1.60;0.50;;;;;;;14.60;74.22;97318.28;5018334;28;20264;-68
2021/05/22 01:20:07;;;;;;;0.30;0.30;;;;;;;14.76;73.80;97304.88;5022393;28;20215;-70
2021/05/22 01:22:38;;;;;;;1.53;0.47;;;;;;;14.61;73.85;97293.88;5010759;28;20207;-68
2021/05/22 01:25:08;;;;;;;0.53;0.50;;;;;;;14.85;73.42;97306.06;5016519;28;20205;-69
2021/05/22 01:27:37;;;;;;;1.40;0.57;;;;;;;14.63;74.18;97293.63;5017035;28;20635;-71
2021/05/22 01:30:06;;;;;;;3.33;1.93;;;;;;;14.80;73.76;97291.75;5020590;28;20679;-68
2021/05/22 01:32:34;;;;;;;3.10;1.87;;;;;;;14.59;74.66;97287.13;5008991;28;20213;-71
2021/05/22 01:35:01;;;;;;;1.47;0.67;;;;;;;14.47;75.78;97292.56;5016792;28;20210;-71
2021/05/22 01:37:28;;;;;;;1.13;0.50;;;;;;;15.00;72.90;97308.97;5008888;28;20231;-68
2021/05/22 01:39:55;;;;;;;0.80;0.60;;;;;;;14.65;74.33;97319.16;5013796;28;20211;-68
2021/05/22 01:42:22;;;;;;;1.30;0.60;;;;;;;14.82;73.40;97328.06;5014915;28;20196;-68
2021/05/22 01:44:51;;;;;;;0.80;0.40;;;;;;;14.48;75.39;97323.69;5022489;28;20241;-68
2021/05/22 01:47:20;;;;;;;1.20;0.63;;;;;;;14.77;74.89;97335.19;5013068;28;20223;-68
2021/05/22 01:49:47;;;;;;;2.33;0.60;;;;;;;14.97;73.32;97338.22;5021696;28;20245;-68
2021/05/22 01:52:16;;;;;;;3.97;0.80;;;;;;;15.31;71.85;97337.16;5012848;28;20218;-69
2021/05/22 01:54:43;;;;;;;1.33;0.90;;;;;;;15.15;71.18;97340.66;5016661;28;20210;-69
2021/05/22 01:57:11;;;;;;;1.80;1.00;;;;;;;15.29;70.69;97342.75;5021537;28;20735;-69
2021/05/22 01:59:38;;;;;;;3.53;1.10;;;;;;;15.11;71.69;97342.22;5022702;28;20203;-68
2021/05/22 02:02:06;;;;;;;1.27;0.80;;;;;;;15.44;70.97;97348.41;5017470;28;20203;-68
2021/05/22 02:04:35;;;;;;;2.10;0.87;;;;;;;15.69;69.97;97353.31;5015744;28;20232;-68
2021/05/22 02:07:02;;;;;;;2.40;0.60;;;;;;;15.34;71.54;97350.13;5009512;28;20227;-67
2021/05/22 02:09:30;;;;;;;0.70;0.70;;;;;;;15.02;73.53;97355.25;5020772;28;20682;-68
2021/05/22 02:11:57;;;;;;;2.13;0.70;;;;;;;15.12;73.36;97355.41;5025764;28;20225;-67
2021/05/22 02:14:26;;;;;;;0.70;0.50;;;;;;;15.62;71.48;97345.44;5013752;28;20546;-67
2021/05/22 02:16:55;;;;;;;1.13;0.60;;;;;;;15.98;69.31;97347.50;5019089;28;20304;-67
2021/05/22 02:19:26;;;;;;;2.63;0.70;;;;;;;15.73;70.86;97352.56;5017309;28;20209;-67
2021/05/22 02:21:54;;;;;;;1.07;0.50;;;;;;;15.51;73.45;97348.22;5012379;28;20679;-67
2021/05/22 02:24:25;;;;;;;5.30;0.80;;;;;;;15.64;75.09;97355.91;5021897;28;20201;-67
2021/05/22 02:26:53;;;;;;;1.30;0.63;;;;;;;14.85;81.50;97367.03;5014480;28;20228;-67
2021/05/22 02:29:21;;;;;;;0.73;0.70;;;;;;;14.87;85.30;97360.38;5020149;28;20203;-67
2021/05/22 02:31:49;;;;;;;1.03;0.50;;;;;;;14.02;94.89;97361.44;5023158;28;20206;-68
2021/05/22 02:34:18;;;;;;;1.37;0.50;;;;;;;13.16;100.00;97375.91;5008767;28;20207;-67
2021/05/22 02:36:47;;;;;;;1.60;0.40;;;;;;;13.65;100.00;97365.50;5005231;28;20231;-67
2021/05/22 02:39:14;;;;;;;2.57;0.53;;;;;;;13.60;100.00;97341.25;5014991;28;20195;-67
2021/05/22 02:41:42;;;;;;;0.40;0.40;;;;;;;13.78;100.00;97321.53;5026799;28;20211;-68
2021/05/22 02:44:09;;;;;;;2.93;0.60;;;;;;;13.78;100.00;97316.16;5010652;28;20227;-70
2021/05/22 02:46:40;;;;;;;2.50;0.53;;;;;;;13.72;100.00;97327.84;5013532;28;20222;-67
2021/05/22 02:49:08;;;;;;;0.63;0.50;;;;;;;13.64;100.00;97342.44;5009896;28;20199;-67
2021/05/22 02:51:35;;;;;;;0.73;0.47;;;;;;;13.59;100.00;97336.13;5007950;28;20217;-67
2021/05/22 02:54:04;;;;;;;0.50;0.50;;;;;;;13.68;100.00;97350.81;5012682;28;20331;-67
2021/05/22 02:56:33;;;;;;;0.43;0.43;;;;;;;12.97;100.00;97359.09;5021398;28;20230;-68
2021/05/22 02:59:00;;;;;;;1.43;0.63;;;;;;;13.40;100.00;97348.03;5019544;28;20219;-68
2021/05/22 03:01:27;;;;;;;1.13;0.50;;;;;;;13.91;100.00;97348.06;5023056;28;20198;-69
2021/05/22 03:03:55;;;;;;;2.00;0.50;;;;;;;13.99;100.00;97337.75;5022339;28;20733;-69
2021/05/22 03:06:23;;;;;;;1.63;0.70;;;;;;;13.94;100.00;97326.94;5007211;28;20220;-70
2021/05/22 03:08:51;;;;;;;2.13;0.50;;;;;;;13.53;100.00;97329.03;5025980;28;20235;-69
2021/05/22 03:11:20;;;;;;;1.63;0.47;;;;;;;13.69;100.00;97336.34;5025322;28;20202;-71
2021/05/22 03:13:48;;;;;;;0.87;0.63;;;;;;;13.85;100.00;97324.88;5022114;28;20206;-68
2021/05/22 03:16:15;;;;;;;1.33;0.70;;;;;;;13.81;100.00;97313.81;5010430;28;20615;-68
2021/05/22 03:18:42;;;;;;;4.20;1.13;;;;;;;13.64;100.00;97323.66;5022329;28;20762;-67
2021/05/22 03:21:09;;;;;;;3.47;0.90;;;;;;;13.98;100.00;97321.94;5014702;28;20199;-68
2021/05/22 03:23:36;;;;;;;3.13;1.00;;;;;;;13.63;100.00;97334.63;5026242;28;20210;-70
2021/05/22 03:26:03;;;;;;;3.53;1.30;;;;;;;13.26;100.00;97325.19;5010313;28;20774;-66
2021/05/22 03:28:31;;;;;;;3.43;1.10;;;;;;;13.72;100.00;97328.63;5005132;28;20209;-69
2021/05/22 03:30:58;;;;;;;2.13;1.00;;;;;;;13.91;100.00;97329.28;5013269;28;20214;-66
2021/05/22 03:33:25;;;;;;;3.13;1.00;;;;;;;13.56;100.00;97334.72;5022107;28;20921;-66
2021/05/22 03:35:52;;;;;;;1.20;0.93;;;;;;;13.66;100.00;97334.13;5008334;28;20234;-67
2021/05/22 03:38:19;;;;;;;3.40;1.00;;;;;;;13.92;100.00;97330.91;5023342;28;20230;-68
2021/05/22 03:40:47;;;;;;;2.40;0.90;;;;;;;13.96;100.00;97345.47;5031694;28;20214;-68
2021/05/22 03:43:13;;;;;;;2.17;0.97;;;;;;;13.82;100.00;97346.81;5017695;28;20253;-68
2021/05/22 03:45:41;;;;;;;1.57;0.87;;;;;;;13.77;100.00;97350.19;5008924;28;20711;-68
2021/05/22 03:48:08;;;;;;;1.90;1.07;;;;;;;13.70;100.00;97351.38;5020697;28;20743;-68
2021/05/22 03:50:35;;;;;;;3.23;1.20;;;;;;;13.75;100.00;97357.69;5028185;28;20203;-69
2021/05/22 03:53:02;;;;;;;1.13;0.70;;;;;;;13.71;100.00;97358.38;5020444;28;20562;-67
2021/05/22 03:55:29;;;;;;;3.53;0.80;;;;;;;13.66;100.00;97372.50;5023760;28;20629;-70
2021/05/22 03:57:56;;;;;;;0.80;0.70;;;;;;;13.78;100.00;97370.59;5005197;28;20219;-67
2021/05/22 04:00:23;;;;;;;3.57;0.77;;;;;;;13.66;100.00;97360.94;5008863;28;20545;-67
2021/05/22 04:02:50;;;;;;;3.90;0.80;;;;;;;13.80;100.00;97362.31;5017781;28;20575;-68
2021/05/22 04:05:17;;;;;;;1.73;0.80;;;;;;;14.04;100.00;97358.53;5018259;28;20666;-71
2021/05/22 04:07:44;;;;;;;1.00;0.70;;;;;;;13.57;100.00;97351.66;5023301;28;20206;-68
2021/05/22 04:10:12;;;;;;;1.30;0.93;;;;;;;13.92;100.00;97355.88;5022142;28;20711;-67
2021/05/22 04:12:38;;;;;;;2.17;0.90;;;;;;;14.01;100.00;97354.44;5015152;28;20290;-67
2021/05/22 04:15:06;;;;;;;2.97;0.93;;;;;;;14.15;100.00;97361.19;5013026;28;20204;-67
2021/05/22 04:17:33;;;;;;;2.53;0.70;;;;;;;13.53;100.00;97353.97;5019310;28;20242;-67
2021/05/22 04:20:01;;;;;;;5.50;0.80;;;;;;;13.86;100.00;97335.38;5014673;28;20198;-70
2021/05/22 04:22:27;;;;;;;0.97;0.57;;;;;;;14.07;100.00;97344.63;5016395;28;20256;-67
2021/05/22 04:24:54;;;;;;;2.83;0.83;;;;;;;13.87;100.00;97349.59;5024048;28;20215;-69
2021/05/22 04:27:21;;;;;;;1.83;0.50;;;;;;;14.07;100.00;97340.09;5006583;28;20223;-79
2021/05/22 04:29:48;;;;;;;2.33;0.80;;;;;;;13.92;100.00;97337.09;5016966;28;20207;-80
2021/05/22 04:32:15;;;;;;;3.23;0.80;;;;;;;14.07;100.00;97353.50;5020676;28;20294;-77
2021/05/22 04:34:41;;;;;;;1.73;0.77;;;;;;;13.37;100.00;97354.69;5009139;28;20584;-68
2021/05/22 04:37:09;;;;;;;2.23;0.70;;;;;;;13.88;100.00;97348.56;5007759;28;20234;-75
2021/05/22 04:39:36;;;;;;;1.50;0.70;;;;;;;13.91;100.00;97345.38;5008839;28;20354;-70
2021/05/22 04:42:03;;;;;;;2.20;0.80;;;;;;;14.12;100.00;97345.53;5009291;28;20203;-70
2021/05/22 04:44:30;;;;;;;3.13;0.83;;;;;;;13.56;100.00;97347.31;5008363;28;20203;-77
2021/05/22 04:46:57;;;;;;;1.33;0.80;;;;;;;13.95;100.00;97341.16;5013161;28;20367;-68
2021/05/22 04:49:27;;;;;;;1.90;0.60;;;;;;;13.71;100.00;97348.47;5012268;28;20199;-68
2021/05/22 04:51:54;;;;;;;1.80;0.60;;;;;;;14.26;100.00;97346.94;5013894;28;20331;-68
2021/05/22 04:54:22;;;;;;;3.17;0.73;;;;;;;14.81;98.49;97353.28;5013833;28;20204;-68
2021/05/22 04:56:49;;;;;;;3.60;0.93;;;;;;;14.44;97.71;97353.97;5008103;28;20232;-69
2021/05/22 04:59:16;;;;;;;1.03;0.50;;;;;;;14.83;96.35;97358.41;5010330;28;20230;-69
2021/05/22 05:01:43;;;;;;;1.47;0.50;;;;;;;14.58;97.60;97358.00;5023327;28;20206;-82
2021/05/22 05:04:10;;;;;;;0.90;0.80;;;;;;;15.44;91.95;97356.47;5019870;28;20212;-77
2021/05/22 05:06:37;;;;;;;1.43;0.70;;;;;;;15.14;92.89;97353.28;5024077;28;20229;-79
2021/05/22 05:09:06;;;;;;;2.40;0.60;;;;;;;14.84;94.62;97352.00;5015151;28;20195;-69
2021/05/22 05:11:34;;;;;;;1.63;0.90;;;;;;;14.93;92.59;97353.19;5019757;28;20606;-69
2021/05/22 05:14:01;;;;;;;1.10;0.50;;;;;;;14.91;92.82;97350.78;5020954;28;20430;-69
2021/05/22 05:16:28;;;;;;;1.60;0.50;;;;;;;14.70;95.36;97353.34;5011076;28;20223;-69
2021/05/22 05:18:55;;;;;;;1.17;0.57;;;;;;;15.46;90.56;97351.63;5011030;28;20223;-69
2021/05/22 05:21:22;;;;;;;0.60;0.60;;;;;;;15.35;88.44;97351.75;5010924;28;20215;-69
2021/05/22 05:23:49;;;;;;;4.17;0.70;;;;;;;15.55;87.33;97357.44;5010528;28;20253;-69
2021/05/22 05:26:16;;;;;;;1.13;0.60;;;;;;;15.71;87.43;97356.56;5011596;28;20241;-70
2021/05/22 05:28:43;;;;;;;2.27;0.80;;;;;;;15.34;88.87;97359.00;5014305;28;20201;-69
2021/05/22 05:31:10;;;;;;;1.23;0.40;;;;;;;15.65;87.41;97368.34;5007442;28;20212;-69
2021/05/22 05:33:37;;;;;;;2.53;0.70;;;;;;;15.79;88.09;97364.19;5009192;28;20736;-68
2021/05/22 05:36:04;;;;;;;1.07;0.47;;;;;;;15.92;85.39;97377.28;5010458;28;20453;-69
2021/05/22 05:38:31;;;;;;;0.63;0.47;;;;;;;15.39;88.88;97375.22;5009743;28;20232;-68
2021/05/22 05:40:58;;;;;;;3.17;0.60;;;;;;;15.01;97.10;97375.13;5007714;28;20201;-70
2021/05/22 05:43:25;;;;;;;1.30;0.50;;;;;;;14.35;100.00;97374.19;5021307;28;20304;-69
2021/05/22 05:45:53;;;;;;;2.00;0.60;;;;;;;14.47;100.00;97378.47;5013013;28;20838;-71
2021/05/22 05:48:20;;;;;;;3.73;0.70;;;;;;;15.25;92.65;97383.84;5024548;28;20448;-69
2021/05/22 05:50:47;;;;;;;3.23;0.80;;;;;;;15.55;91.60;97379.75;5014611;28;20218;-69
2021/05/22 05:53:13;;;;;;;3.40;1.00;;;;;;;15.31;91.76;97382.84;5009208;28;20202;-70
2021/05/22 05:55:40;;;;;;;3.33;0.90;;;;;;;15.35;89.78;97378.66;5007945;28;20232;-70
2021/05/22 05:58:07;;;;;;;2.30;0.80;;;;;;;15.40;89.30;97387.59;5014906;28;20247;-69
2021/05/22 06:00:34;;;;;;;3.23;0.87;;;;;;;15.72;86.25;97388.63;5017063;28;20231;-70
2021/05/22 06:03:01;;;;;;;3.23;1.00;;;;;;;15.94;87.02;97384.06;5010323;28;20347;-71
2021/05/22 06:05:28;;;;;;;3.60;0.90;;;;;;;15.76;87.32;97376.28;5010553;28;20207;-70
2021/05/22 06:07:55;;;;;;;2.43;0.73;;;;;;;15.88;88.22;97384.22;5007990;28;20201;-71
2021/05/22 06:10:22;;;;;;;4.97;0.87;;;;;;;16.00;88.70;97382.25;5006164;28;20212;-71
2021/05/22 06:12:49;;;;;;;3.73;1.23;;;;;;;16.18;84.71;97388.13;5013345;28;20311;-70
2021/05/22 06:15:24;;;;;;;3.47;0.90;;;;;;;16.44;83.91;97395.47;5003341;28;20217;-71
2021/05/22 06:17:52;;;;;;;3.43;0.90;;;;;;;16.31;84.08;97386.94;5007383;28;20241;-70
2021/05/22 06:20:20;;;;;;;1.43;0.67;;;;;;;16.69;79.96;97394.91;5001909;28;20209;-69
2021/05/22 06:22:48;;;;;;;2.83;1.20;;;;;;;16.59;82.39;97392.13;5007982;28;20211;-69
2021/05/22 06:25:15;;;;;;;5.20;0.90;;;;;;;16.22;79.88;97401.91;5010596;28;20198;-69
2021/05/22 06:27:42;;;;;;;2.83;0.87;;;;;;;16.97;75.48;97418.94;5006176;28;20210;-70
2021/05/22 06:30:10;;;;;;;3.63;1.10;;;;;;;17.12;71.56;97411.78;5004759;28;20214;-68
2021/05/22 06:32:37;;;;;;;2.53;1.00;;;;;;;17.28;71.95;97410.03;5006006;28;20813;-69
2021/05/22 06:35:06;;;;;;;5.03;1.50;;;;;;;17.57;71.89;97411.34;5005879;28;20583;-69
2021/05/22 06:37:33;;;;;;;3.57;1.20;;;;;;;17.09;68.02;97424.97;5007941;28;20690;-76
2021/05/22 06:40:00;;;;;;;2.60;1.00;;;;;;;17.53;69.12;97413.75;5010576;28;20203;-74
2021/05/22 06:42:31;;;;;;;4.80;0.90;;;;;;;17.65;67.98;97413.56;5008477;28;20211;-74
2021/05/22 06:45:02;;;;;;;6.53;1.63;;;;;;;17.67;67.89;97411.41;5020609;28;20206;-77
2021/05/22 06:47:29;;;;;;;3.23;0.83;;;;;;;17.88;65.64;97408.59;5022363;28;20227;-79
2021/05/22 06:49:56;;;;;;;2.90;0.80;;;;;;;17.90;62.85;97406.47;5024621;28;20203;-80
2021/05/22 06:52:23;;;;;;;3.57;0.97;;;;;;;17.89;62.83;97404.81;5024019;28;20533;-79
2021/05/22 06:54:50;;;;;;;2.67;0.90;;;;;;;18.34;62.86;97406.97;5027694;28;20450;-85
2021/05/22 06:57:18;;;;;;;3.77;0.90;;;;;;;18.10;59.67;97422.78;5011829;28;20225;-72
2021/05/22 06:59:46;;;;;;;4.43;1.00;;;;;;;18.33;58.85;97410.72;5020020;28;20626;-71
2021/05/22 07:02:13;;;;;;;7.07;1.00;;;;;;;18.86;57.86;97407.66;5020784;28;20206;-71
2021/05/22 07:04:40;;;;;;;1.30;0.80;;;;;;;18.82;54.85;97429.00;5021368;28;20670;-69
2021/05/22 07:07:06;;;;;;;3.17;1.10;;;;;;;18.43;55.39;97418.88;5014616;28;20311;-73
2021/05/22 07:09:33;;;;;;;5.30;0.90;;;;;;;19.21;54.55;97411.19;5017434;28;20279;-71
2021/05/22 07:12:01;;;;;;;6.57;1.20;;;;;;;18.51;56.27;97419.19;5014559;28;20209;-71
2021/05/22 07:14:29;;;;;;;2.87;0.90;;;;;;;17.89;56.08;97418.31;5019874;28;20207;-77
2021/05/22 07:16:57;;;;;;;6.73;1.10;;;;;;;18.32;53.65;97427.97;5006822;28;20247;-73
2021/05/22 07:19:26;;;;;;;7.20;1.00;;;;;;;18.07;56.02;97423.28;5011719;28;20743;-74
2021/05/22 07:21:53;;;;;;;5.90;1.00;;;;;;;18.67;55.07;97415.44;5022920;28;20259;-80
2021/05/22 07:24:20;;;;;;;5.23;1.50;;;;;;;18.77;53.93;97420.06;5012064;28;20212;-69
2021/05/22 07:26:47;;;;;;;4.77;0.90;;;;;;;18.68;51.08;97429.75;5016635;28;20233;-73
2021/05/22 07:29:15;;;;;;;7.73;1.23;;;;;;;18.90;50.96;97433.88;5019362;28;20202;-74
2021/05/22 07:31:43;;;;;;;2.03;0.80;;;;;;;18.98;51.45;97427.97;5027691;28;20202;-67
2021/05/22 07:34:10;;;;;;;2.50;0.80;;;;;;;19.01;51.48;97437.44;5017232;28;20212;-72
2021/05/22 07:36:37;;;;;;;3.30;1.10;;;;;;;18.97;54.04;97426.34;5007864;28;20552;-75
2021/05/22 07:39:06;;;;;;;6.67;1.13;;;;;;;18.65;53.64;97449.22;5013477;28;20296;-68
2021/05/22 07:41:33;;;;;;;5.23;0.97;;;13.90;1.00;;;19.36;48.47;97461.84;5014600;28;20231;-69
2021/05/22 07:43:59;;;;;;;4.60;1.10;;;13.90;1.00;;;18.61;49.26;97464.34;5025134;28;20209;-71
2021/05/22 07:46:26;;;;;;;3.87;1.20;;;13.70;1.00;;;18.73;49.19;97462.22;5013155;28;20226;-69
2021/05/22 07:48:53;;;;;;;5.20;1.10;;;13.60;1.00;;;18.82;51.97;97455.22;5019512;28;20202;-70
2021/05/22 07:51:20;;;;;;;4.40;0.90;;;13.40;1.00;;;17.84;63.41;97444.47;5016306;28;20261;-71
2021/05/22 07:53:46;;;;;;;4.63;0.77;;;12.60;1.00;;;17.64;62.95;97445.13;5014362;28;20294;-69
2021/05/22 07:56:13;;;;;;;3.53;0.90;;;;;;;17.65;60.48;97437.84;5013868;28;20232;-69
2021/05/22 07:58:39;;;;;;;3.10;1.20;;;12.50;1.00;;;17.70;61.94;97444.13;5015135;28;20235;-75
2021/05/22 08:01:06;;;;;;;2.43;0.90;;;12.50;1.00;;;17.72;52.69;97465.41;5019996;28;20203;-72
2021/05/22 08:03:33;;;;;;;3.20;0.80;;;12.60;1.00;;;18.08;51.75;97453.81;5029102;28;20263;-73
2021/05/22 08:06:00;;;;;;;3.13;0.63;;;12.80;1.00;;;18.21;53.23;97459.56;5024305;28;20625;-73
2021/05/22 08:08:26;;;;;;;4.93;0.80;;;13.10;1.00;;;17.85;47.98;97452.31;5016449;28;20287;-68
2021/05/22 08:10:53;;;;;;;1.50;0.60;;;13.10;1.00;;;18.48;47.56;97473.75;5015373;28;20217;-68
2021/05/22 08:13:19;;;;;;;2.93;0.80;;;13.30;1.00;;;19.49;44.26;97477.53;5028193;28;20210;-67
2021/05/22 08:15:46;;;;;;;2.33;0.60;;;13.70;1.00;;;19.44;41.57;97475.66;5028277;28;20241;-70
2021/05/22 08:18:12;;;;;;;2.97;0.80;;;14.10;1.00;;;19.18;41.68;97487.50;5020199;28;20218;-69
2021/05/22 08:20:39;;;;;;;3.50;0.90;;;14.10;1.00;;;19.05;42.12;97476.38;5022244;28;20251;-70
2021/05/22 08:23:06;;;;;;;3.50;0.97;;;14.20;1.00;;;19.54;40.30;97472.94;5012136;28;20206;-77
2021/05/22 08:25:32;;;;;;;3.50;0.77;;;14.20;1.00;;;18.91;39.92;97472.56;5010794;28;20712;-74
2021/05/22 08:27:59;;;;;;;3.73;0.90;;;14.10;1.00;;;19.63;38.85;97482.16;5011461;28;20196;-75
2021/05/22 08:30:25;;;;;;;1.83;0.70;;;14.30;1.00;;;19.59;37.89;97486.50;5007241;28;20209;-74
2021/05/22 08:32:52;;;;;;;1.30;0.60;;;14.20;1.00;;;19.48;37.82;97473.22;5021864;28;20198;-75
2021/05/22 08:35:19;;;;;;;1.90;0.70;;;14.40;1.00;;;19.57;37.48;97480.53;5023727;28;20294;-77
2021/05/22 08:37:46;;;;;;;2.37;1.00;;;14.50;1.00;;;20.12;37.44;97474.28;5011839;28;20229;-76
2021/05/22 08:40:14;;;;;;;2.93;1.03;;;14.60;1.00;;;19.89;38.49;97464.81;5020890;28;20213;-76
2021/05/22 08:42:40;;;;;;;2.33;0.60;;;14.60;1.00;;;20.48;36.28;97456.84;5014827;28;20210;-76
2021/05/22 08:45:10;;;;;;;2.57;0.77;;;14.90;1.00;;;21.16;35.93;97464.94;5008427;28;20204;-75
2021/05/22 08:47:38;;;;;;;3.03;0.77;;;15.30;1.00;;;20.65;34.78;97479.81;5011653;28;20263;-76
2021/05/22 08:50:08;;;;;;;2.57;0.70;;;15.40;1.00;;;20.11;37.01;97462.63;5010874;28;20203;-75
2021/05/22 08:52:35;;;;;;;4.90;0.80;;;15.10;1.00;;;19.85;37.96;97461.03;5010720;28;20215;-75
2021/05/22 08:55:04;;;;;;;2.90;0.77;;;14.70;1.00;;;20.59;37.97;97453.00;5013282;28;20199;-75
2021/05/22 08:57:31;;;;;;;3.77;0.80;;;15.00;1.00;;;20.45;36.03;97465.50;5005748;28;20230;-76
2021/05/22 08:59:57;;;;;;;2.17;0.70;;;15.00;1.00;;;20.07;35.10;97458.00;5010037;28;20199;-80
2021/05/22 09:02:27;;;;;;;4.40;1.13;;;14.90;1.00;;;20.40;34.54;97460.09;5014735;28;20203;-75
2021/05/22 09:05:18;;;;;;;1.70;0.90;;;15.10;1.00;;;20.34;34.74;97455.81;5022637;28;20195;-73
2021/05/22 09:07:48;;;;;;;5.93;1.07;;;15.10;1.00;;;19.69;34.42;97469.41;5011444;28;20208;-75
2021/05/22 09:10:20;;;;;;;1.87;0.67;;;14.90;1.00;;;19.92;33.56;97469.66;5025113;28;20199;-74
2021/05/22 09:12:49;;;;;;;2.10;0.70;;;15.00;1.00;;;20.09;34.50;97470.22;5009433;28;20210;-74
2021/05/22 09:15:18;;;;;;;2.37;0.67;;;15.00;1.00;;;20.03;34.60;97463.19;5016852;28;20217;-76
2021/05/22 09:17:53;;;;;;;4.30;0.83;;;15.10;1.00;;;20.86;33.74;97469.66;5020082;28;20235;-76
2021/05/22 09:20:25;;;;;;;5.30;0.73;;;15.30;1.00;;;20.33;33.68;97465.84;5019093;28;20186;-78
2021/05/22 09:23:04;;;;;;;3.13;0.87;;;15.30;1.00;;;20.43;33.06;97476.66;5027497;28;20203;-79
2021/05/22 09:25:34;;;;;;;3.27;0.83;;;15.30;1.00;;;20.39;32.81;97475.56;5027877;28;20187;-80
2021/05/22 09:28:02;;;;;;;1.53;0.60;;;15.40;1.00;;;20.35;32.95;97470.97;5014732;28;20292;-80
2021/05/22 09:30:30;;;;;;;2.50;0.60;;;15.50;1.00;;;20.21;33.37;97462.59;5011515;28;20214;-76
2021/05/22 09:32:56;;;;;;;3.53;0.90;;;15.50;1.00;;;20.31;34.14;97454.44;5019161;28;20306;-77
2021/05/22 09:35:25;;;;;;;1.83;0.60;;;15.50;1.00;;;21.15;32.24;97457.88;5016570;28;20218;-78
2021/05/22 09:37:54;;;;;;;2.30;0.60;;;15.90;1.00;;;21.83;30.47;97469.63;5021637;28;20231;-76
2021/05/22 09:40:24;;;;;;;2.23;0.60;;;16.30;1.00;;;21.33;29.98;97468.06;5019540;28;20205;-74
2021/05/22 09:42:52;;;;;;;2.83;0.60;;;16.00;1.00;;;20.52;31.28;97483.09;5016779;28;20217;-79
2021/05/22 09:45:28;;;;;;;3.60;0.60;;;15.90;1.00;;;20.76;30.68;97477.84;5021897;28;20228;-78
2021/05/22 09:47:58;;;;;;;2.40;0.80;;;15.90;1.00;;;20.65;31.53;97473.56;5021667;28;20229;-77
2021/05/22 09:50:32;;;;;;;0.90;0.63;;;15.60;1.00;;;20.64;31.83;97480.91;5016729;28;20284;-74
2021/05/22 09:53:00;;;;;;;2.73;0.70;;;15.60;1.00;;;20.71;31.72;97475.16;5000030;28;20235;-75
2021/05/22 09:55:27;;;;;;;3.00;0.70;;;15.60;1.00;;;20.74;32.45;97482.75;5006374;28;20195;-77
2021/05/22 09:57:56;;;;;;;1.70;0.67;;;15.20;1.00;;;19.97;32.52;97479.69;5018778;28;20745;-76
2021/05/22 10:00:26;;;;;;;2.43;0.80;;;15.00;1.00;;;19.82;32.82;97477.00;5003741;28;20582;-73
2021/05/22 10:02:56;;;;;;;2.20;0.80;;;14.60;1.00;;;19.62;34.28;97463.47;5008104;28;20216;-76
2021/05/22 10:05:31;;;;;;;1.63;0.70;;;14.50;1.00;;;19.98;32.78;97478.63;5004769;28;20199;-77
2021/05/22 10:07:59;;;;;;;3.43;0.87;;;15.00;1.00;;;19.65;33.73;97461.03;5012378;28;20294;-76
2021/05/22 10:10:40;;;;;;;1.63;0.63;;;14.80;1.00;;;20.21;33.20;97476.16;5015744;28;20206;-76
2021/05/22 10:13:08;;;;;;;2.40;0.60;;;14.90;1.00;;;19.85;32.93;97465.63;5008275;28;20199;-74
2021/05/22 10:15:36;;;;;;;2.77;0.77;;;15.20;1.00;;;21.08;32.09;97476.38;5010643;28;20298;-77
2021/05/22 10:18:03;;;;;;;2.67;1.00;;;15.90;1.00;;;21.38;30.88;97478.88;5010281;28;20219;-79
2021/05/22 10:20:30;;;;;;;3.47;0.77;;;16.00;1.00;;;21.85;30.65;97476.41;5009654;28;20200;-77
2021/05/22 10:22:57;;;;;;;3.67;0.70;;;16.40;1.00;;;21.45;30.05;97482.13;5025238;28;20207;-82
2021/05/22 10:25:24;;;;;;;2.27;0.63;;;16.70;1.00;;;21.86;28.77;97482.63;5017347;28;20209;-75
2021/05/22 10:27:50;;;;;;;1.33;0.70;;;16.80;1.00;;;21.12;30.59;97477.44;5020665;28;20539;-75
2021/05/22 10:30:19;;;;;;;3.43;0.70;;;16.60;1.00;;;22.06;28.67;97493.31;5022905;28;20696;-75
2021/05/22 10:32:47;;;;;;;3.07;1.83;;;16.90;1.00;;;22.75;27.40;97496.41;5012898;28;20209;-74
2021/05/22 10:35:16;;;;;;;3.27;0.70;;;17.30;1.00;;;22.29;28.45;97495.28;5019164;28;20205;-81
2021/05/22 10:37:45;;;;;;;2.60;0.90;;;17.40;1.00;;;21.82;28.10;97490.53;5017576;28;20224;-73
2021/05/22 10:40:14;;;;;;;3.77;0.97;;;17.30;1.00;;;22.39;27.62;97484.28;5021248;28;20298;-78
2021/05/22 10:42:55;;;;;;;2.93;0.83;;;17.40;1.00;;;23.18;27.43;97485.25;5023892;28;20216;-76
2021/05/22 10:45:33;;;;;;;3.70;0.90;;;17.80;1.00;;;22.47;26.83;97506.25;5016445;28;22002;-77
2021/05/22 10:48:01;;;;;;;2.83;0.80;;;17.80;1.00;;;22.07;27.18;97503.06;4999054;28;20286;-75
2021/05/22 10:50:44;;;;;;;2.50;1.00;;;17.50;1.00;;;23.10;26.32;97513.06;5010932;28;20202;-76
2021/05/22 10:53:33;;;;;;;1.27;0.70;;;17.60;1.00;;;22.30;27.53;97505.84;5005529;28;20200;-74
2021/05/22 10:56:20;;;;;;;2.77;0.80;;;17.50;1.00;;;23.07;25.89;97499.25;5000729;28;20215;-84
2021/05/22 10:59:13;;;;;;;2.20;0.70;;;17.70;1.00;;;21.90;27.02;97497.25;5011480;28;20215;-79
2021/05/22 11:01:44;;;;;;;2.07;0.70;;;17.00;1.00;;;22.27;26.60;97500.97;5015107;28;20207;-75
2021/05/22 11:04:32;;;;;;;2.23;0.70;;;17.20;1.00;;;22.44;27.11;97482.34;5007442;28;20217;-75
2021/05/22 11:07:02;;;;;;;1.77;0.67;;;17.20;1.00;;;22.51;26.84;97485.53;5007239;28;20214;-82
2021/05/22 11:09:52;;;;;;;4.07;0.90;;;17.50;1.00;;;23.26;25.49;97497.38;5013500;28;20206;-78
2021/05/22 11:12:44;;;;;;;2.57;0.90;;;17.90;1.00;;;23.15;24.24;97531.28;5018262;28;20195;-78
2021/05/22 11:15:47;;;;;;;6.40;1.20;;;18.00;1.00;;;23.09;23.20;97518.81;5018829;28;20210;-74